Time;durP1;ratioP1;P1;durP2;ratioP2;P2;SDS_P1;SDS_P2;PMS_P1;PMS_P2;Temp;Humidity;BMP_temperature;BMP_pressure;BME280_temperature;BME280_humidity;BME280_pressure;Samples;Min_cycle;Max_cycle;Signal;HPM_P1;HPM_P2
2022/10/29 00:00:51;;;;;;;19.57;9.77;;;13.60;99.90;;;;;;5107659;28;20453;-75
2022/10/29 00:03:18;;;;;;;32.27;10.60;;;13.60;99.90;;;;;;5099374;28;20471;-75
2022/10/29 00:05:55;;;;;;;24.90;10.43;;;13.50;99.90;;;;;;5099498;28;20482;-75
2022/10/29 00:08:22;;;;;;;24.97;9.93;;;13.50;99.90;;;;;;5111814;28;20480;-75
2022/10/29 00:10:48;;;;;;;19.50;10.23;;;13.50;99.90;;;;;;5096356;28;20467;-75
2022/10/29 00:13:15;;;;;;;17.67;9.40;;;13.50;99.90;;;;;;5097491;28;20528;-75
2022/10/29 00:15:43;;;;;;;21.57;9.67;;;13.50;99.90;;;;;;5095338;28;20447;-75
2022/10/29 00:18:10;;;;;;;24.70;10.33;;;13.40;99.90;;;;;;5094386;28;20451;-75
2022/10/29 00:20:36;;;;;;;23.17;10.40;;;13.40;99.90;;;;;;5098833;28;20451;-75
2022/10/29 00:23:03;;;;;;;19.20;9.40;;;13.40;99.90;;;;;;5096707;27;20471;-75
2022/10/29 00:25:30;;;;;;;18.40;9.67;;;13.40;99.90;;;;;;5102246;28;21021;-75
2022/10/29 00:27:56;;;;;;;25.77;9.47;;;13.40;99.90;;;;;;5102743;28;20856;-76
2022/10/29 00:30:23;;;;;;;20.73;10.73;;;13.40;99.90;;;;;;5102674;28;20462;-75
2022/10/29 00:32:51;;;;;;;22.77;11.07;;;13.40;99.90;;;;;;5099113;28;20449;-75
2022/10/29 00:35:18;;;;;;;16.40;9.37;;;13.40;99.90;;;;;;5103906;28;20426;-75
2022/10/29 00:37:44;;;;;;;31.70;10.40;;;13.40;99.90;;;;;;5106934;28;20507;-75
2022/10/29 00:40:12;;;;;;;26.07;9.97;;;13.40;99.90;;;;;;5104250;28;20504;-75
2022/10/29 00:42:39;;;;;;;19.60;9.27;;;13.30;99.90;;;;;;5104286;28;20866;-76
2022/10/29 00:45:09;;;;;;;21.93;10.13;;;13.30;99.90;;;;;;5103085;28;20468;-75
2022/10/29 00:47:37;;;;;;;19.03;9.57;;;13.20;99.90;;;;;;5093745;28;20464;-75
2022/10/29 00:50:08;;;;;;;20.13;10.17;;;13.20;99.90;;;;;;5102744;28;20448;-75
2022/10/29 00:52:38;;;;;;;29.33;10.03;;;13.20;99.90;;;;;;5105003;28;20475;-76
2022/10/29 00:55:08;;;;;;;25.63;10.57;;;13.10;99.90;;;;;;5107807;28;20848;-75
2022/10/29 00:57:38;;;;;;;15.77;9.37;;;13.10;99.90;;;;;;5106869;28;20447;-75
2022/10/29 01:00:07;;;;;;;20.13;10.00;;;13.10;99.90;;;;;;5097945;28;20442;-75
2022/10/29 01:02:35;;;;;;;23.37;10.10;;;13.00;99.90;;;;;;5090000;28;21378;-75
2022/10/29 01:05:03;;;;;;;28.20;9.40;;;12.90;99.90;;;;;;5090325;28;20897;-75
2022/10/29 01:07:32;;;;;;;26.30;9.53;;;13.00;99.90;;;;;;5090564;28;20455;-75
2022/10/29 01:09:58;;;;;;;18.40;9.03;;;12.90;99.90;;;;;;5093244;28;20461;-75
2022/10/29 01:12:53;;;;;;;19.60;9.93;;;12.80;99.90;;;;;;5098454;28;20464;-75
2022/10/29 01:15:27;;;;;;;21.83;9.80;;;12.80;99.90;;;;;;5099040;28;20952;-75
2022/10/29 01:18:05;;;;;;;23.10;9.37;;;12.80;99.90;;;;;;5094773;28;20451;-75
2022/10/29 01:20:57;;;;;;;21.80;9.30;;;12.80;99.90;;;;;;5099035;28;21032;-75
2022/10/29 01:23:54;;;;;;;22.57;9.50;;;12.80;99.90;;;;;;5105413;28;20472;-76
2022/10/29 01:26:59;;;;;;;19.90;8.40;;;12.80;99.90;;;;;;5104463;28;20483;-75
2022/10/29 01:29:39;;;;;;;20.87;8.57;;;12.70;99.90;;;;;;5092346;28;20447;-75
2022/10/29 01:32:11;;;;;;;17.53;8.30;;;12.70;99.90;;;;;;5094823;28;20473;-75
2022/10/29 01:34:43;;;;;;;16.47;9.33;;;12.70;99.90;;;;;;5102147;28;20462;-75
2022/10/29 01:37:16;;;;;;;21.23;9.40;;;12.70;99.90;;;;;;5090412;28;20448;-76
2022/10/29 01:39:52;;;;;;;17.90;9.00;;;12.70;99.90;;;;;;5090087;28;20454;-75
2022/10/29 01:42:27;;;;;;;14.90;8.70;;;12.60;99.90;;;;;;5105296;28;20526;-75
2022/10/29 01:45:00;;;;;;;23.30;10.20;;;12.70;99.90;;;;;;5109115;28;20550;-74
2022/10/29 01:47:36;;;;;;;17.73;9.17;;;12.60;99.90;;;;;;5100041;28;20870;-75
2022/10/29 01:50:07;;;;;;;17.00;9.50;;;12.60;99.90;;;;;;5102657;28;20867;-75
2022/10/29 01:52:36;;;;;;;14.93;8.30;;;12.50;99.90;;;;;;5099183;28;20470;-76
2022/10/29 01:55:04;;;;;;;24.70;8.30;;;12.50;99.90;;;;;;5104867;27;20512;-75
2022/10/29 01:57:32;;;;;;;26.77;10.20;;;12.50;99.90;;;;;;5111651;28;20447;-75
2022/10/29 02:00:03;;;;;;;25.73;9.40;;;12.50;99.90;;;;;;5100943;27;20451;-75
2022/10/29 02:02:45;;;;;;;19.40;8.90;;;12.50;99.90;;;;;;5100806;28;20467;-75
2022/10/29 02:05:20;;;;;;;26.37;9.67;;;12.40;99.90;;;;;;5108168;28;20449;-75
2022/10/29 02:07:51;;;;;;;18.47;8.90;;;12.40;99.90;;;;;;5097801;28;20512;-75
2022/10/29 02:10:26;;;;;;;13.80;8.80;;;12.40;99.90;;;;;;5097771;28;20461;-75
2022/10/29 02:12:54;;;;;;;26.47;10.80;;;12.40;99.90;;;;;;5099817;28;20470;-75
2022/10/29 02:15:26;;;;;;;15.37;8.50;;;12.40;99.90;;;;;;5098423;28;20447;-75
2022/10/29 02:17:59;;;;;;;22.80;9.63;;;12.40;99.90;;;;;;5098794;27;20507;-74
2022/10/29 02:20:26;;;;;;;18.37;9.90;;;12.40;99.90;;;;;;5095812;28;20452;-75
2022/10/29 02:22:53;;;;;;;35.07;11.80;;;12.40;99.90;;;;;;5103713;28;20807;-74
2022/10/29 02:25:19;;;;;;;26.30;11.80;;;12.40;99.90;;;;;;5110764;28;21088;-75
2022/10/29 02:27:46;;;;;;;24.30;11.57;;;12.40;99.90;;;;;;5107777;28;20516;-75
2022/10/29 02:30:13;;;;;;;17.50;9.10;;;12.40;99.90;;;;;;5102491;28;20497;-75
2022/10/29 02:32:39;;;;;;;19.87;10.00;;;12.40;99.90;;;;;;5104347;28;20475;-75
2022/10/29 02:35:08;;;;;;;23.57;9.47;;;12.40;99.90;;;;;;5108885;28;20442;-75
2022/10/29 02:37:35;;;;;;;18.60;10.40;;;12.40;99.90;;;;;;5101391;28;20882;-75
2022/10/29 02:40:02;;;;;;;22.97;9.27;;;12.40;99.90;;;;;;5110105;28;20455;-75
2022/10/29 02:42:29;;;;;;;25.57;10.13;;;12.40;99.90;;;;;;5106300;27;20469;-75
2022/10/29 02:44:56;;;;;;;23.20;9.60;;;12.40;99.90;;;;;;5108183;28;20461;-74
2022/10/29 02:47:22;;;;;;;19.57;9.93;;;12.40;99.90;;;;;;5096822;28;20514;-75
2022/10/29 02:49:49;;;;;;;16.43;9.40;;;12.30;99.90;;;;;;5108121;28;20469;-75
2022/10/29 02:52:17;;;;;;;19.00;9.17;;;12.30;99.90;;;;;;5108177;28;20477;-74
2022/10/29 02:54:44;;;;;;;22.93;9.53;;;12.20;99.90;;;;;;5106447;28;20460;-74
2022/10/29 02:57:10;;;;;;;27.80;9.20;;;12.30;99.90;;;;;;5110095;28;20443;-75
2022/10/29 02:59:37;;;;;;;35.50;9.40;;;12.20;99.90;;;;;;5110307;28;20453;-75
2022/10/29 03:02:04;;;;;;;23.87;9.87;;;12.20;99.90;;;;;;5097442;28;20470;-74
2022/10/29 03:04:30;;;;;;;20.23;8.70;;;12.10;99.90;;;;;;5099613;28;20502;-74
2022/10/29 03:06:57;;;;;;;15.70;8.87;;;12.10;99.90;;;;;;5108450;28;20486;-75
2022/10/29 03:09:25;;;;;;;16.60;9.43;;;12.00;99.90;;;;;;5106976;28;20448;-75
2022/10/29 03:11:52;;;;;;;13.23;9.20;;;12.00;99.90;;;;;;5098107;27;21040;-74
2022/10/29 03:14:18;;;;;;;21.30;9.30;;;11.90;99.90;;;;;;5095764;28;20451;-74
2022/10/29 03:16:45;;;;;;;19.70;9.70;;;11.90;99.90;;;;;;5104499;28;20456;-75
2022/10/29 03:19:12;;;;;;;15.10;8.77;;;11.90;99.90;;;;;;5109287;28;20466;-74
2022/10/29 03:21:38;;;;;;;18.63;8.93;;;11.90;99.90;;;;;;5101939;27;20457;-74
2022/10/29 03:24:06;;;;;;;15.97;9.30;;;11.90;99.90;;;;;;5104102;28;20476;-75
2022/10/29 03:26:34;;;;;;;16.40;8.00;;;11.90;99.90;;;;;;5108251;27;20489;-74
2022/10/29 03:29:00;;;;;;;18.67;9.57;;;11.90;99.90;;;;;;5103252;28;20448;-75
2022/10/29 03:31:27;;;;;;;15.50;8.80;;;11.80;99.90;;;;;;5100830;28;20484;-75
2022/10/29 03:33:54;;;;;;;18.60;9.80;;;11.80;99.90;;;;;;5103880;28;20528;-75
2022/10/29 03:36:20;;;;;;;14.83;8.90;;;11.80;99.90;;;;;;5095026;28;20447;-74
2022/10/29 03:38:47;;;;;;;30.67;9.70;;;11.80;99.90;;;;;;5094924;28;20458;-75
2022/10/29 03:41:14;;;;;;;22.20;9.20;;;11.80;99.90;;;;;;5094491;28;20473;-75
2022/10/29 03:43:42;;;;;;;21.03;9.10;;;11.80;99.90;;;;;;5098032;28;20531;-75
2022/10/29 03:46:09;;;;;;;14.57;8.80;;;11.80;99.90;;;;;;5096010;28;20482;-75
2022/10/29 03:48:35;;;;;;;19.03;8.40;;;11.70;99.90;;;;;;5097271;28;20975;-75
2022/10/29 03:51:05;;;;;;;18.03;8.80;;;11.70;99.90;;;;;;5095208;28;20455;-75
2022/10/29 03:53:32;;;;;;;16.60;9.47;;;11.70;99.90;;;;;;5097573;28;21048;-76
2022/10/29 03:55:59;;;;;;;22.63;9.47;;;11.70;99.90;;;;;;5095447;28;20450;-76
2022/10/29 03:58:26;;;;;;;27.33;7.90;;;11.60;99.90;;;;;;5094597;28;20469;-75
2022/10/29 04:00:56;;;;;;;26.60;8.97;;;11.60;99.90;;;;;;5101274;28;20456;-76
2022/10/29 04:03:22;;;;;;;13.87;8.30;;;11.60;99.90;;;;;;5106660;28;20480;-75
2022/10/29 04:05:49;;;;;;;24.00;9.17;;;11.60;99.90;;;;;;5101175;28;20504;-76
2022/10/29 04:08:16;;;;;;;20.70;8.90;;;11.60;99.90;;;;;;5099361;28;20456;-75
2022/10/29 04:10:45;;;;;;;20.80;9.00;;;11.50;99.90;;;;;;5101569;28;20505;-76
2022/10/29 04:13:12;;;;;;;14.67;8.07;;;11.50;99.90;;;;;;5094299;28;20565;-76
2022/10/29 04:15:38;;;;;;;22.47;8.80;;;11.50;99.90;;;;;;5099959;28;20475;-76
2022/10/29 04:18:06;;;;;;;19.10;9.57;;;11.50;99.90;;;;;;5106461;28;20962;-76
2022/10/29 04:20:33;;;;;;;20.17;8.30;;;11.50;99.90;;;;;;5103389;28;20455;-76
2022/10/29 04:23:00;;;;;;;16.60;9.30;;;11.50;99.90;;;;;;5095381;28;20468;-75
2022/10/29 04:25:27;;;;;;;17.40;8.63;;;11.50;99.90;;;;;;5105140;28;20509;-76
2022/10/29 04:27:54;;;;;;;18.13;8.30;;;11.40;99.90;;;;;;5105631;28;20531;-76
2022/10/29 04:30:21;;;;;;;16.37;7.93;;;11.40;99.90;;;;;;5094728;28;20899;-75
2022/10/29 04:32:47;;;;;;;18.40;8.67;;;11.40;99.90;;;;;;5104955;28;20480;-76
2022/10/29 04:35:16;;;;;;;19.33;8.67;;;11.40;99.90;;;;;;5093544;28;20450;-75
2022/10/29 04:37:42;;;;;;;26.07;9.90;;;11.40;99.90;;;;;;5094293;28;20451;-76
2022/10/29 04:40:10;;;;;;;23.50;10.20;;;11.40;99.90;;;;;;5101207;28;20519;-75
2022/10/29 04:42:37;;;;;;;38.10;12.00;;;11.40;99.90;;;;;;5095173;28;20483;-76
2022/10/29 04:45:04;;;;;;;33.70;11.97;;;11.40;99.90;;;;;;5105240;28;20812;-75
2022/10/29 04:47:31;;;;;;;28.83;12.10;;;11.30;99.90;;;;;;5099484;28;20479;-75
2022/10/29 04:49:58;;;;;;;35.87;12.10;;;11.40;99.90;;;;;;5103615;28;20444;-75
2022/10/29 04:52:26;;;;;;;32.80;11.50;;;11.30;99.90;;;;;;5101938;28;20479;-76
2022/10/29 04:54:52;;;;;;;46.20;12.40;;;11.30;99.90;;;;;;5107014;28;20450;-75
2022/10/29 04:57:19;;;;;;;28.87;10.10;;;11.30;99.90;;;;;;5095718;28;20481;-75
2022/10/29 04:59:46;;;;;;;25.63;10.43;;;11.20;99.90;;;;;;5096007;28;20457;-75
2022/10/29 05:02:12;;;;;;;17.60;10.30;;;11.30;99.90;;;;;;5100547;28;20471;-75
2022/10/29 05:04:39;;;;;;;32.50;10.90;;;11.30;99.90;;;;;;5095507;28;20455;-75
2022/10/29 05:07:06;;;;;;;29.73;10.90;;;11.30;99.90;;;;;;5095654;28;20832;-75
2022/10/29 05:09:34;;;;;;;24.83;12.10;;;11.20;99.90;;;;;;5097402;28;20453;-75
2022/10/29 05:12:00;;;;;;;24.00;10.37;;;11.30;99.90;;;;;;5089737;28;20481;-75
2022/10/29 05:14:27;;;;;;;20.33;10.03;;;11.30;99.90;;;;;;5090766;28;20452;-76
2022/10/29 05:16:54;;;;;;;22.93;9.70;;;11.30;99.90;;;;;;5091841;28;20451;-75
2022/10/29 05:19:20;;;;;;;22.67;10.70;;;11.30;99.90;;;;;;5099622;28;20474;-75
2022/10/29 05:21:47;;;;;;;16.30;9.23;;;11.30;99.90;;;;;;5100641;28;20453;-75
2022/10/29 05:24:14;;;;;;;20.80;10.30;;;11.30;99.90;;;;;;5105617;28;20446;-75
2022/10/29 05:26:42;;;;;;;20.60;11.07;;;11.30;99.90;;;;;;5105627;28;20475;-75
2022/10/29 05:29:09;;;;;;;22.53;11.63;;;11.40;99.90;;;;;;5101773;28;20835;-75
2022/10/29 05:31:36;;;;;;;15.60;10.90;;;11.40;99.90;;;;;;5101002;28;20461;-75
2022/10/29 05:34:02;;;;;;;17.27;10.17;;;11.40;99.90;;;;;;5109691;28;20877;-75
2022/10/29 05:36:29;;;;;;;31.40;10.00;;;11.40;99.90;;;;;;5099097;28;20964;-76
2022/10/29 05:38:55;;;;;;;14.80;9.90;;;11.50;99.90;;;;;;5103158;28;20865;-75
2022/10/29 05:41:22;;;;;;;15.13;10.07;;;11.50;99.90;;;;;;5107751;28;20967;-76
2022/10/29 05:43:50;;;;;;;14.90;9.13;;;11.50;99.90;;;;;;5099570;28;20481;-75
2022/10/29 05:46:17;;;;;;;22.03;9.63;;;11.50;99.90;;;;;;5103808;28;20456;-75
2022/10/29 05:48:44;;;;;;;14.67;9.67;;;11.60;99.90;;;;;;5101187;28;20459;-75
2022/10/29 05:51:10;;;;;;;17.00;11.20;;;11.60;99.90;;;;;;5107142;28;20443;-75
2022/10/29 05:53:37;;;;;;;12.47;9.20;;;11.60;99.90;;;;;;5111175;28;20475;-76
2022/10/29 05:56:04;;;;;;;13.93;9.83;;;11.60;99.90;;;;;;5103686;28;20443;-75
2022/10/29 05:58:31;;;;;;;15.50;9.43;;;11.70;99.90;;;;;;5106809;28;20457;-75
2022/10/29 06:00:59;;;;;;;18.63;9.13;;;11.70;99.90;;;;;;5112017;28;20499;-75
2022/10/29 06:03:26;;;;;;;14.67;9.77;;;11.70;99.90;;;;;;5115058;28;20462;-76
2022/10/29 06:05:52;;;;;;;12.53;9.20;;;11.70;99.90;;;;;;5107751;28;20829;-76
2022/10/29 06:08:19;;;;;;;18.10;11.00;;;11.70;99.90;;;;;;5093466;28;20535;-72
2022/10/29 06:10:46;;;;;;;13.43;9.17;;;11.70;99.90;;;;;;5100931;28;20459;-72
2022/10/29 06:13:14;;;;;;;13.90;9.47;;;11.80;99.90;;;;;;5094157;28;20470;-72
2022/10/29 06:15:41;;;;;;;19.23;9.37;;;11.90;99.90;;;;;;5101266;28;20485;-72
2022/10/29 06:18:10;;;;;;;13.50;9.00;;;11.90;99.90;;;;;;5111448;28;20449;-72
2022/10/29 06:20:38;;;;;;;12.73;8.77;;;12.00;99.90;;;;;;5110043;28;20452;-73
2022/10/29 06:23:05;;;;;;;13.90;8.27;;;12.10;99.90;;;;;;5110729;28;20467;-72
2022/10/29 06:25:32;;;;;;;23.77;10.95;;;12.10;99.90;;;;;;5110128;28;20855;-75
2022/10/29 06:28:00;;;;;;;19.83;9.83;;;12.20;99.90;;;;;;5109141;28;20217;-76
2022/10/29 06:30:27;;;;;;;21.50;10.50;;;12.30;99.90;;;;;;5108936;28;20497;-76
2022/10/29 06:32:54;;;;;;;13.23;9.30;;;12.20;99.90;;;;;;5110220;28;20986;-76
2022/10/29 06:35:22;;;;;;;19.97;9.67;;;12.20;99.90;;;;;;5109894;28;20442;-76
2022/10/29 06:37:49;;;;;;;17.50;9.67;;;12.20;99.90;;;;;;5109430;28;20454;-76
2022/10/29 06:40:16;;;;;;;20.07;10.20;;;12.10;99.90;;;;;;5109724;28;20457;-76
2022/10/29 06:42:42;;;;;;;29.43;10.93;;;12.10;99.90;;;;;;5109905;28;21191;-77
2022/10/29 06:45:10;;;;;;;19.93;11.13;;;12.10;99.90;;;;;;5109250;28;20445;-77
2022/10/29 06:47:39;;;;;;;22.80;10.20;;;12.20;99.90;;;;;;5109592;28;20477;-77
2022/10/29 06:50:06;;;;;;;26.67;11.20;;;12.20;99.90;;;;;;5110030;28;20530;-77
2022/10/29 06:52:35;;;;;;;28.10;12.43;;;12.20;99.90;;;;;;5109296;28;20493;-77
2022/10/29 06:55:02;;;;;;;30.07;12.30;;;12.20;99.90;;;;;;5109730;28;20457;-77
2022/10/29 06:57:28;;;;;;;25.77;12.30;;;12.20;99.90;;;;;;5109581;28;20477;-77
2022/10/29 06:59:55;;;;;;;27.97;11.43;;;12.20;99.90;;;;;;5109515;28;20451;-77
2022/10/29 07:02:23;;;;;;;28.40;11.87;;;12.20;99.90;;;;;;5108317;28;20470;-77
2022/10/29 07:04:49;;;;;;;28.33;12.53;;;12.30;99.90;;;;;;5109690;28;21513;-77
2022/10/29 07:07:16;;;;;;;23.07;12.27;;;12.30;99.90;;;;;;5109200;28;20476;-78
2022/10/29 07:09:44;;;;;;;22.50;13.20;;;12.30;99.90;;;;;;5107567;28;20445;-77
2022/10/29 07:12:11;;;;;;;18.97;11.30;;;12.30;99.90;;;;;;5108593;28;21758;-76
2022/10/29 07:14:38;;;;;;;27.03;12.57;;;12.30;99.90;;;;;;5108608;28;20531;-77
2022/10/29 07:17:04;;;;;;;26.60;12.50;;;12.30;99.90;;;;;;5108491;28;20439;-77
2022/10/29 07:19:31;;;;;;;33.17;11.93;;;12.30;99.90;;;;;;5108659;28;20465;-75
2022/10/29 07:21:57;;;;;;;29.33;13.03;;;12.30;99.90;;;;;;5107581;28;20480;-78
2022/10/29 07:24:24;;;;;;;19.57;11.50;;;12.30;99.90;;;;;;5109369;27;20512;-78
2022/10/29 07:26:52;;;;;;;22.70;11.90;;;12.40;99.90;;;;;;5107858;28;20458;-77
2022/10/29 07:29:19;;;;;;;32.13;12.77;;;12.40;99.90;;;;;;5108003;28;20498;-76
2022/10/29 07:31:46;;;;;;;34.40;11.57;;;12.40;99.90;;;;;;5108322;28;20449;-78
2022/10/29 07:34:12;;;;;;;31.80;11.67;;;12.40;99.90;;;;;;5108056;28;20460;-78
2022/10/29 07:36:39;;;;;;;28.07;12.70;;;12.40;99.90;;;;;;5108484;28;20462;-78
2022/10/29 07:39:06;;;;;;;27.37;12.77;;;12.40;99.90;;;;;;5107775;28;20854;-77
2022/10/29 07:41:33;;;;;;;23.03;11.63;;;12.40;99.90;;;;;;5107896;28;20438;-76
2022/10/29 07:44:01;;;;;;;48.77;16.40;;;12.40;99.90;;;;;;5108235;28;20490;-77
2022/10/29 07:46:27;;;;;;;22.30;12.20;;;12.50;99.90;;;;;;5107281;28;20543;-77
2022/10/29 07:48:54;;;;;;;22.83;11.60;;;12.50;99.90;;;;;;5107777;28;20474;-78
2022/10/29 07:51:21;;;;;;;32.43;11.67;;;12.60;99.90;;;;;;5108325;28;20484;-76
2022/10/29 07:53:47;;;;;;;26.13;12.83;;;12.60;99.90;;;;;;5108476;28;20535;-77
2022/10/29 07:56:14;;;;;;;23.70;12.57;;;12.70;99.90;;;;;;5107515;28;21757;-77
2022/10/29 07:58:41;;;;;;;23.23;11.60;;;12.70;99.90;;;;;;5108765;28;20866;-75
2022/10/29 08:01:09;;;;;;;28.07;11.63;;;12.80;99.90;;;;;;5107526;28;20860;-75
2022/10/29 08:03:36;;;;;;;33.50;12.73;;;12.80;99.90;;;;;;5107521;28;20886;-76
2022/10/29 08:06:02;;;;;;;33.30;13.60;;;12.90;99.90;;;;;;5107957;28;20450;-76
2022/10/29 08:08:29;;;;;;;30.57;12.67;;;12.90;99.90;;;;;;5107207;28;20539;-76
2022/10/29 08:10:59;;;;;;;29.00;12.30;;;13.00;99.90;;;;;;5106954;28;20462;-76
2022/10/29 08:13:26;;;;;;;24.00;12.00;;;13.10;99.90;;;;;;5107000;28;20594;-76
2022/10/29 08:15:53;;;;;;;39.20;12.10;;;13.10;99.90;;;;;;5107557;28;20451;-76
2022/10/29 08:18:21;;;;;;;23.90;11.60;;;13.20;99.90;;;;;;5107952;28;20446;-76
2022/10/29 08:20:48;;;;;;;23.80;12.17;;;13.30;99.90;;;;;;5106975;28;20466;-77
2022/10/29 08:23:14;;;;;;;21.87;12.03;;;13.30;99.90;;;;;;5106987;28;20844;-75
2022/10/29 08:25:41;;;;;;;24.03;11.47;;;13.40;99.90;;;;;;5107687;28;20876;-75
2022/10/29 08:28:10;;;;;;;35.10;12.40;;;13.40;99.90;;;;;;5107267;28;20596;-76
2022/10/29 08:30:37;;;;;;;20.23;12.67;;;13.40;99.90;;;;;;5107435;28;20465;-74
2022/10/29 08:33:05;;;;;;;27.93;13.13;;;13.50;99.90;;;;;;5106839;28;20462;-75
2022/10/29 08:35:33;;;;;;;32.03;13.47;;;13.50;99.90;;;;;;5107730;28;20963;-75
2022/10/29 08:38:00;;;;;;;23.50;13.00;;;13.50;99.90;;;;;;5107392;28;20800;-75
2022/10/29 08:40:36;;;;;;;27.40;13.93;;;13.50;99.90;;;;;;5107368;28;20469;-75
2022/10/29 08:43:34;;;;;;;34.53;14.33;;;13.50;99.90;;;;;;5106778;28;20474;-75
2022/10/29 08:46:01;;;;;;;32.53;14.57;;;13.60;99.90;;;;;;5106928;28;20449;-73
2022/10/29 08:48:38;;;;;;;33.10;13.97;;;13.70;99.90;;;;;;5106978;28;20515;-74
2022/10/29 08:51:13;;;;;;;35.70;15.10;;;13.80;99.90;;;;;;5106871;28;20538;-72
2022/10/29 08:53:43;;;;;;;34.73;14.87;;;13.70;99.90;;;;;;5113719;28;20482;-74
2022/10/29 08:56:15;;;;;;;28.57;14.70;;;13.80;99.90;;;;;;5114158;28;20878;-73
2022/10/29 08:58:50;;;;;;;42.53;15.20;;;13.90;99.90;;;;;;5114559;27;20434;-74
2022/10/29 09:01:20;;;;;;;31.23;16.27;;;13.90;99.90;;;;;;5113576;28;20446;-74
2022/10/29 09:03:47;;;;;;;32.53;14.97;;;14.00;99.90;;;;;;5113801;28;20478;-74
2022/10/29 09:06:23;;;;;;;32.87;15.03;;;14.10;99.90;;;;;;5113957;28;20464;-73
2022/10/29 09:09:03;;;;;;;37.10;15.50;;;14.20;99.90;;;;;;5114226;28;20590;-74
2022/10/29 09:11:56;;;;;;;39.77;16.37;;;14.30;99.90;;;;;;5112981;28;20871;-74
2022/10/29 09:14:46;;;;;;;26.30;14.97;;;14.40;99.90;;;;;;5114160;27;20442;-75
2022/10/29 09:17:22;;;;;;;32.30;14.50;;;14.50;99.90;;;;;;5113507;28;20442;-75
2022/10/29 09:20:03;;;;;;;36.50;16.10;;;14.50;99.90;;;;;;5113656;28;20454;-76
2022/10/29 09:22:41;;;;;;;30.20;15.37;;;14.60;99.90;;;;;;5113529;27;21075;-76
2022/10/29 09:25:17;;;;;;;26.03;13.30;;;14.60;99.90;;;;;;5113692;28;20825;-75
2022/10/29 09:27:57;;;;;;;24.73;13.40;;;14.70;99.90;;;;;;5113798;28;20939;-75
2022/10/29 09:30:30;;;;;;;32.83;13.23;;;14.80;99.90;;;;;;5113513;28;20457;-75
2022/10/29 09:33:00;;;;;;;33.57;13.20;;;14.80;99.90;;;;;;5112573;27;20524;-75
2022/10/29 09:35:38;;;;;;;32.57;12.63;;;14.80;99.90;;;;;;5113340;27;20820;-75
2022/10/29 09:38:13;;;;;;;32.57;13.20;;;14.90;99.90;;;;;;5112876;28;20434;-75
2022/10/29 09:40:42;;;;;;;31.80;13.47;;;15.00;99.90;;;;;;5113539;28;20511;-75
2022/10/29 09:43:31;;;;;;;27.07;13.60;;;15.00;99.90;;;;;;5113400;28;20445;-76
2022/10/29 09:46:05;;;;;;;25.33;13.13;;;15.10;99.90;;;;;;5113323;28;20508;-75
2022/10/29 09:48:36;;;;;;;22.30;12.60;;;15.30;99.90;;;;;;5113588;28;20449;-74
2022/10/29 09:51:14;;;;;;;28.27;12.37;;;15.60;99.90;;;;;;5113030;28;20446;-75
2022/10/29 09:53:43;;;;;;;35.90;13.00;;;16.00;99.90;;;;;;5113683;27;20462;-75
2022/10/29 09:56:10;;;;;;;27.93;12.87;;;16.20;99.90;;;;;;5112891;28;20450;-75
2022/10/29 09:58:40;;;;;;;26.10;11.73;;;16.40;99.90;;;;;;5112804;27;20503;-75
2022/10/29 10:01:07;;;;;;;24.57;12.63;;;16.40;99.90;;;;;;5112933;28;20524;-75
2022/10/29 10:03:37;;;;;;;34.00;13.03;;;16.40;99.90;;;;;;5111916;28;20442;-75
2022/10/29 10:06:06;;;;;;;30.67;12.77;;;16.30;99.90;;;;;;5110220;28;20541;-75
2022/10/29 10:08:34;;;;;;;27.03;12.70;;;16.10;99.90;;;;;;5109858;28;20524;-74
2022/10/29 10:11:04;;;;;;;29.70;13.53;;;16.10;99.90;;;;;;5109258;28;20432;-74
2022/10/29 10:13:33;;;;;;;31.20;13.60;;;16.00;99.90;;;;;;5110330;28;20490;-74
2022/10/29 10:16:02;;;;;;;24.87;12.23;;;16.00;99.90;;;;;;5109787;28;20443;-74
2022/10/29 10:18:40;;;;;;;26.30;12.90;;;16.00;99.90;;;;;;5110265;28;20454;-74
2022/10/29 10:21:09;;;;;;;31.77;13.27;;;16.00;99.90;;;;;;5108988;28;20960;-74
2022/10/29 10:23:42;;;;;;;26.90;12.90;;;16.10;99.90;;;;;;5109924;28;20445;-74
2022/10/29 10:26:29;;;;;;;30.10;13.90;;;16.10;99.90;;;;;;5108334;28;20839;-74
2022/10/29 10:29:09;;;;;;;25.83;13.33;;;16.10;99.90;;;;;;5109871;28;20494;-74
2022/10/29 10:31:36;;;;;;;28.03;13.37;;;16.30;99.90;;;;;;5109020;28;20549;-74
2022/10/29 10:34:10;;;;;;;35.20;12.90;;;16.30;99.90;;;;;;5109641;28;20425;-75
2022/10/29 10:36:40;;;;;;;34.40;13.80;;;16.40;99.90;;;;;;5109630;28;21014;-74
2022/10/29 10:39:24;;;;;;;28.30;13.23;;;16.50;99.90;;;;;;5109288;28;20470;-74
2022/10/29 10:41:53;;;;;;;28.77;14.07;;;16.60;99.90;;;;;;5109009;28;20468;-75
2022/10/29 10:44:21;;;;;;;28.77;13.30;;;16.70;99.90;;;;;;5109552;28;20446;-75
2022/10/29 10:46:51;;;;;;;30.23;14.10;;;16.70;99.90;;;;;;5108947;28;20421;-75
2022/10/29 10:49:22;;;;;;;28.80;13.30;;;16.60;99.90;;;;;;5109549;28;20549;-75
2022/10/29 10:51:51;;;;;;;28.83;13.47;;;16.70;99.90;;;;;;5109132;28;20513;-78
2022/10/29 10:54:28;;;;;;;36.90;14.80;;;16.70;99.90;;;;;;5109024;28;20418;-76
2022/10/29 10:57:01;;;;;;;32.27;14.37;;;16.70;99.90;;;;;;5107618;28;20460;-75
2022/10/29 10:59:39;;;;;;;29.37;14.20;;;16.70;99.90;;;;;;5109447;28;20425;-76
2022/10/29 11:02:16;;;;;;;33.90;14.00;;;16.80;99.90;;;;;;5108396;28;20485;-75
2022/10/29 11:04:44;;;;;;;36.40;14.33;;;16.80;99.90;;;;;;5109194;28;20942;-75
2022/10/29 11:07:13;;;;;;;30.33;14.20;;;16.80;99.90;;;;;;5108538;28;20852;-75
2022/10/29 11:09:46;;;;;;;35.90;15.43;;;16.90;99.90;;;;;;5109479;28;20482;-75
2022/10/29 11:12:25;;;;;;;35.60;14.93;;;17.00;99.90;;;;;;5108270;28;20453;-75
2022/10/29 11:14:57;;;;;;;31.03;15.37;;;17.10;99.90;;;;;;5108610;28;20444;-76
2022/10/29 11:17:28;;;;;;;32.27;15.40;;;17.10;99.90;;;;;;5109179;28;20519;-76
2022/10/29 11:19:59;;;;;;;35.43;14.73;;;17.10;99.90;;;;;;5108862;28;20478;-76
2022/10/29 11:22:29;;;;;;;38.03;16.10;;;17.00;99.90;;;;;;5107755;28;20981;-76
2022/10/29 11:25:02;;;;;;;35.23;14.17;;;17.10;99.90;;;;;;5109311;28;20429;-75
2022/10/29 11:27:39;;;;;;;27.63;14.10;;;17.00;99.90;;;;;;5109260;28;20950;-76
2022/10/29 11:30:10;;;;;;;32.60;14.27;;;17.00;99.90;;;;;;5108066;28;20990;-77
2022/10/29 11:32:50;;;;;;;39.13;14.43;;;17.00;99.90;;;;;;5108009;28;20445;-77
2022/10/29 11:35:23;;;;;;;31.30;13.53;;;17.10;99.90;;;;;;5108882;28;20524;-77
2022/10/29 11:37:57;;;;;;;27.60;14.57;;;17.10;99.90;;;;;;5108605;28;20448;-78
2022/10/29 11:40:28;;;;;;;26.77;14.07;;;17.20;99.90;;;;;;5108710;28;20525;-78
2022/10/29 11:42:56;;;;;;;42.47;14.30;;;17.20;99.90;;;;;;5108327;28;20892;-77
2022/10/29 11:45:37;;;;;;;25.63;13.30;;;17.40;99.90;;;;;;5108438;28;20479;-77
2022/10/29 11:48:16;;;;;;;26.77;13.60;;;17.60;99.90;;;;;;5108358;28;20429;-77
2022/10/29 11:50:50;;;;;;;33.07;15.07;;;17.90;99.90;;;;;;5107548;28;20467;-77
2022/10/29 11:53:46;;;;;;;30.10;12.60;;;18.30;99.90;;;;;;5107030;28;21200;-77
2022/10/29 11:56:21;;;;;;;31.07;12.80;;;18.60;99.90;;;;;;5107570;28;20441;-73
2022/10/29 11:58:55;;;;;;;26.40;12.70;;;19.00;99.90;;;;;;5106846;28;20417;-73
2022/10/29 12:01:30;;;;;;;24.13;11.80;;;19.30;99.90;;;;;;5106158;28;20939;-72
2022/10/29 12:04:09;;;;;;;30.83;11.40;;;19.50;99.90;;;;;;5107932;28;20474;-73
2022/10/29 12:06:42;;;;;;;25.27;12.20;;;19.60;99.90;;;;;;5107846;28;20530;-72
2022/10/29 12:09:44;;;;;;;39.90;12.13;;;19.70;99.90;;;;;;5101677;28;20490;-73
2022/10/29 12:12:17;;;;;;;27.40;10.90;;;20.00;99.90;;;;;;5097832;28;20891;-73
2022/10/29 12:14:50;;;;;;;20.10;10.77;;;20.10;99.90;;;;;;5108783;28;21007;-73
2022/10/29 12:17:23;;;;;;;23.07;10.37;;;20.10;99.90;;;;;;5107662;28;20443;-72
2022/10/29 12:19:58;;;;;;;20.83;10.57;;;20.10;99.90;;;;;;5107135;28;20466;-74
2022/10/29 12:22:37;;;;;;;20.53;9.73;;;20.00;99.90;;;;;;5106194;28;20886;-78
2022/10/29 12:25:24;;;;;;;24.85;9.98;;;20.00;99.90;;;;;;5106582;28;20863;-72
2022/10/29 12:28:02;;;;;;;30.07;10.27;;;19.80;99.90;;;;;;5106835;28;20200;-71
2022/10/29 12:30:34;;;;;;;24.03;10.90;;;19.70;99.90;;;;;;5105056;28;20832;-71
2022/10/29 12:33:06;;;;;;;20.77;10.63;;;19.50;99.90;;;;;;5103828;28;20470;-71
2022/10/29 12:35:38;;;;;;;23.47;10.30;;;19.40;99.90;;;;;;5107298;28;20449;-71
2022/10/29 12:38:22;;;;;;;27.13;9.87;;;19.20;99.90;;;;;;5107448;28;20447;-71
2022/10/29 12:40:52;;;;;;;34.23;10.97;;;19.10;99.90;;;;;;5106604;28;20450;-72
2022/10/29 12:43:25;;;;;;;25.77;11.10;;;19.10;99.90;;;;;;5107514;28;20557;-71
2022/10/29 12:46:02;;;;;;;21.07;10.80;;;19.00;99.90;;;;;;5105491;28;20454;-71